Time;durP1;ratioP1;P1;durP2;ratioP2;P2;SDS_P1;SDS_P2;PMS_P1;PMS_P2;Temp;Humidity;BMP_temperature;BMP_pressure;BME280_temperature;BME280_humidity;BME280_pressure;Samples;Min_cycle;Max_cycle;Signal;HPM_P1;HPM_P2
2022/07/02 00:00:15;;;;;;;10.80;6.40;;;13.80;99.90;;;;;;2614882;39;20601;-76
2022/07/02 00:06:05;;;;;;;7.77;6.97;;;13.70;99.90;;;;;;2613817;54;20469;-75
2022/07/02 00:11:59;;;;;;;7.03;5.30;;;13.60;99.90;;;;;;2614573;54;20447;-75
2022/07/02 00:17:46;;;;;;;9.40;6.90;;;13.50;99.90;;;;;;2614645;54;20405;-75
2022/07/02 00:23:34;;;;;;;6.57;5.00;;;13.60;99.90;;;;;;2615175;54;20394;-74
2022/07/02 00:35:53;;;;;;;5.50;5.10;;;13.50;99.90;;;;;;2614807;39;20764;-76
2022/07/02 00:41:43;;;;;;;5.70;5.10;;;13.60;99.90;;;;;;2613112;54;20395;-75
2022/07/02 00:47:33;;;;;;;4.90;4.40;;;13.50;99.90;;;;;;2614541;54;20418;-74
2022/07/02 00:53:21;;;;;;;6.13;5.50;;;13.70;99.90;;;;;;2613721;54;20371;-75
2022/07/02 00:59:09;;;;;;;7.33;5.50;;;13.50;99.90;;;;;;2614595;54;20130;-75
2022/07/02 01:04:58;;;;;;;5.50;5.00;;;13.30;99.90;;;;;;2614911;54;20539;-74
2022/07/02 01:10:52;;;;;;;6.23;5.67;;;13.20;99.90;;;;;;2615408;46;20395;-74
2022/07/02 01:16:39;;;;;;;6.13;5.63;;;13.10;99.90;;;;;;2613718;54;20555;-73
2022/07/02 01:22:38;;;;;;;6.70;5.27;;;13.20;99.90;;;;;;2614993;54;20154;-74
2022/07/02 01:28:26;;;;;;;7.27;5.70;;;13.10;99.90;;;;;;2614249;54;20640;-74
2022/07/02 01:34:14;;;;;;;6.70;5.13;;;13.10;99.90;;;;;;2614779;54;20395;-73
2022/07/02 01:40:02;;;;;;;5.63;5.17;;;13.00;99.90;;;;;;2614623;54;20196;-72
2022/07/02 01:45:50;;;;;;;6.20;4.93;;;13.10;99.90;;;;;;2614254;54;20362;-76
2022/07/02 01:51:38;;;;;;;8.70;5.10;;;13.00;99.90;;;;;;2614832;54;20183;-73
2022/07/02 01:57:29;;;;;;;6.40;5.87;;;12.90;99.90;;;;;;2614174;54;20918;-73
2022/07/02 02:03:17;;;;;;;5.93;5.33;;;13.00;99.90;;;;;;2614274;54;20441;-74
2022/07/02 02:09:05;;;;;;;5.77;5.17;;;13.00;99.90;;;;;;2615591;39;20623;-74
2022/07/02 02:14:53;;;;;;;5.70;4.90;;;13.10;99.90;;;;;;2614620;54;20509;-75
2022/07/02 02:20:40;;;;;;;6.40;5.47;;;13.20;99.90;;;;;;2614915;54;20138;-76
2022/07/02 02:26:28;;;;;;;7.20;6.50;;;13.20;99.90;;;;;;2614176;54;20159;-75
2022/07/02 02:32:16;;;;;;;9.37;5.77;;;13.00;99.90;;;;;;2614375;54;20238;-76
2022/07/02 02:38:03;;;;;;;10.73;6.07;;;12.90;99.90;;;;;;2614071;54;20126;-75
2022/07/02 02:43:51;;;;;;;8.97;5.60;;;12.90;99.90;;;;;;2614206;54;20122;-77
2022/07/02 02:49:39;;;;;;;5.73;5.23;;;12.90;99.90;;;;;;2614522;54;20242;-75
2022/07/02 02:55:28;;;;;;;7.83;5.90;;;12.80;99.90;;;;;;2614468;39;20539;-75
2022/07/02 03:08:00;;;;;;;6.93;6.10;;;12.60;99.90;;;;;;2614795;54;20395;-76
2022/07/02 03:13:48;;;;;;;6.87;6.03;;;12.50;99.90;;;;;;2614798;54;20146;-74
2022/07/02 03:19:37;;;;;;;11.77;5.60;;;12.60;99.90;;;;;;2615342;54;20191;-74
2022/07/02 03:25:25;;;;;;;5.23;4.73;;;12.40;99.90;;;;;;2614582;46;21024;-76
2022/07/02 03:31:13;;;;;;;10.23;7.00;;;12.60;99.90;;;;;;2614929;54;20399;-74
2022/07/02 03:37:01;;;;;;;7.13;6.13;;;12.60;99.90;;;;;;2614960;54;20127;-75
2022/07/02 03:42:48;;;;;;;5.97;5.47;;;12.50;99.90;;;;;;2615338;54;20190;-75
2022/07/02 03:48:36;;;;;;;6.70;5.80;;;12.50;99.90;;;;;;2615059;54;20752;-75
2022/07/02 03:54:24;;;;;;;7.30;5.57;;;12.60;99.90;;;;;;2613894;54;20130;-75
2022/07/02 04:00:12;;;;;;;10.10;5.87;;;12.70;99.90;;;;;;2614647;54;20129;-75
2022/07/02 04:06:00;;;;;;;6.57;5.47;;;12.80;99.90;;;;;;2615215;54;20399;-75
2022/07/02 04:11:48;;;;;;;8.30;6.13;;;12.90;99.90;;;;;;2614560;54;20408;-75
2022/07/02 04:17:36;;;;;;;6.80;5.53;;;12.90;99.90;;;;;;2615316;54;20122;-76
2022/07/02 04:23:23;;;;;;;9.50;5.43;;;13.10;99.90;;;;;;2614876;54;20655;-75
2022/07/02 04:29:11;;;;;;;6.17;4.87;;;13.50;99.90;;;;;;2614365;54;20181;-76
2022/07/02 04:34:59;;;;;;;9.60;4.90;;;13.70;99.90;;;;;;2614925;54;20166;-75
2022/07/02 04:40:46;;;;;;;8.97;4.47;;;13.90;99.90;;;;;;2615085;54;20115;-74
2022/07/02 04:46:34;;;;;;;7.03;4.70;;;14.20;99.90;;;;;;2615278;54;20125;-75
2022/07/02 04:52:22;;;;;;;6.80;4.60;;;14.90;99.90;;;;;;2613785;54;20136;-75
2022/07/02 04:58:09;;;;;;;5.47;4.30;;;15.70;99.90;;;;;;2614181;39;20767;-74
2022/07/02 05:17:55;;;;;;;7.30;4.13;;;17.90;89.20;;;;;;2610057;46;20438;-75
2022/07/02 05:23:42;;;;;;;3.80;3.30;;;18.50;79.60;;;;;;2614452;39;20537;-75
2022/07/02 05:29:29;;;;;;;4.03;3.50;;;18.70;73.00;;;;;;2612724;54;20133;-75
2022/07/02 05:35:16;;;;;;;3.73;3.40;;;19.00;60.10;;;;;;2613081;54;20149;-75
2022/07/02 05:41:03;;;;;;;7.70;3.53;;;19.30;50.20;;;;;;2614073;54;20307;-76
2022/07/02 05:46:51;;;;;;;3.90;3.60;;;19.20;54.10;;;;;;2613203;54;20172;-78
2022/07/02 05:52:39;;;;;;;6.03;3.60;;;20.00;39.10;;;;;;2614313;54;20662;-75
2022/07/02 05:58:26;;;;;;;3.40;3.10;;;20.00;35.00;;;;;;2613276;54;20141;-74
2022/07/02 06:04:29;;;;;;;3.40;2.80;;;19.50;42.20;;;;;;2611788;54;20234;-76
2022/07/02 06:10:20;;;;;;;3.67;3.07;;;20.00;33.80;;;;;;2612723;54;20143;-75
2022/07/02 06:16:07;;;;;;;4.07;3.33;;;20.40;32.50;;;;;;2612219;54;20396;-77
2022/07/02 06:21:54;;;;;;;5.83;3.30;;;20.60;26.80;;;;;;2612650;54;20138;-76
2022/07/02 06:27:41;;;;;;;7.30;2.90;;;20.30;29.10;;;;;;2612881;54;20827;-80
2022/07/02 06:33:28;;;;;;;5.20;3.10;;;21.40;21.20;;;;;;2612472;54;20152;-76
2022/07/02 06:39:16;;;;;;;3.87;2.80;;;21.80;16.80;;;;;;2614803;54;20132;-77
2022/07/02 06:45:04;;;;;;;7.60;2.80;;;22.00;13.80;;;;;;2614759;54;20137;-77
2022/07/02 06:50:51;;;;;;;2.87;2.67;;;22.70;7.50;;;;;;2614502;54;20503;-77
2022/07/02 06:56:39;;;;;;;3.17;2.87;;;22.40;9.20;;;;;;2614688;54;20129;-73
2022/07/02 07:12:37;;;;;;;2.93;2.63;;;23.30;2.70;;;;;;2613816;54;20413;-73
2022/07/02 07:18:24;;;;;;;2.60;2.40;;;24.20;1.00;;;;;;2613868;54;20137;-74
2022/07/02 07:24:11;;;;;;;2.50;2.30;;;23.90;1.00;;;;;;2614419;54;20131;-74
2022/07/02 07:29:59;;;;;;;5.67;2.40;;;24.00;1.00;;;;;;2608607;54;20652;-75
2022/07/02 07:35:46;;;;;;;2.67;2.47;;;24.60;1.00;;;;;;2610143;54;20156;-75
2022/07/02 07:41:33;;;;;;;4.53;2.83;;;25.00;1.00;;;;;;2610257;54;20130;-74
2022/07/02 07:47:20;;;;;;;4.27;2.70;;;24.60;1.00;;;;;;2611756;54;20162;-75
2022/07/02 07:53:08;;;;;;;3.13;2.83;;;24.70;1.00;;;;;;2611423;54;20126;-73
2022/07/02 07:58:56;;;;;;;2.43;2.23;;;25.90;1.00;;;;;;2614696;54;20659;-73
2022/07/02 08:01:22;;;;;;;3.03;2.70;;;25.30;1.00;;;;;;2611278;54;20417;-73
2022/07/02 08:03:48;;;;;;;3.13;1.93;;;25.60;1.00;;;;;;2610637;54;20142;-73
2022/07/02 08:09:35;;;;;;;2.50;2.30;;;23.60;1.00;;;;;;2611052;54;20138;-73
2022/07/02 08:15:24;;;;;;;2.60;2.40;;;25.00;1.00;;;;;;2615051;54;20167;-73
2022/07/02 08:18:27;;;;;;;3.33;2.47;;;25.00;1.00;;;;;;2611695;54;21216;-77
2022/07/02 08:20:53;;;;;;;3.87;2.97;;;24.80;1.00;;;;;;2613671;54;20500;-78
2022/07/02 08:26:41;;;;;;;2.83;2.53;;;25.50;1.00;;;;;;2613737;54;20151;-79
2022/07/02 08:32:28;;;;;;;2.60;2.40;;;25.90;1.00;;;;;;2613638;54;20217;-76
2022/07/02 08:38:16;;;;;;;4.23;2.67;;;26.50;1.00;;;;;;2615120;54;20195;-76
2022/07/02 08:44:07;;;;;;;3.60;2.93;;;25.70;1.00;;;;;;2613488;54;20134;-76
2022/07/02 08:49:56;;;;;;;4.43;2.97;;;25.10;1.00;;;;;;2615348;54;20515;-77
2022/07/02 08:55:45;;;;;;;2.10;2.00;;;24.40;1.00;;;;;;2615303;39;20782;-76
2022/07/02 09:08:17;;;;;;;2.77;2.50;;;26.70;1.00;;;;;;2615850;39;20748;-78
2022/07/02 09:14:06;;;;;;;6.53;2.50;;;26.40;1.00;;;;;;2613571;54;20940;-78
2022/07/02 09:19:54;;;;;;;2.53;1.90;;;27.70;1.00;;;;;;2615286;54;20524;-78
2022/07/02 09:25:44;;;;;;;2.70;1.97;;;26.80;1.00;;;;;;2614429;54;20159;-77
2022/07/02 09:31:32;;;;;;;2.27;2.07;;;26.40;1.00;;;;;;2611662;39;20805;-77
2022/07/02 09:37:24;;;;;;;3.03;2.60;;;27.40;1.00;;;;;;2615169;54;20427;-78
2022/07/02 10:26:50;;;;;;;2.57;2.37;;;26.40;1.00;;;;;;2612705;54;20483;-77
2022/07/02 10:53:17;;;;;;;2.87;2.30;;;28.30;1.00;;;;;;2612950;54;20505;-76
2022/07/02 10:59:05;;;;;;;2.67;2.03;;;27.60;1.00;;;;;;2612810;54;20541;-77
2022/07/02 11:14:58;;;;;;;2.10;2.00;;;28.50;1.00;;;;;;2610848;54;20486;-77
2022/07/02 11:24:08;;;;;;;2.60;2.40;;;27.80;1.00;;;;;;2611125;54;20416;-77
2022/07/02 11:29:55;;;;;;;2.40;2.10;;;28.40;1.00;;;;;;2611984;54;20388;-78
2022/07/02 11:35:43;;;;;;;2.77;2.57;;;29.00;1.00;;;;;;2611469;54;20168;-78
2022/07/02 11:41:34;;;;;;;2.70;2.50;;;29.20;1.00;;;;;;2613009;54;20415;-78
2022/07/02 11:47:22;;;;;;;2.67;2.30;;;27.80;1.00;;;;;;2614849;54;20401;-77
2022/07/02 11:53:10;;;;;;;4.27;2.53;;;28.50;1.00;;;;;;2612147;54;20289;-78
2022/07/02 11:58:58;;;;;;;3.33;2.37;;;28.90;1.00;;;;;;2613863;54;20153;-77
2022/07/02 12:04:47;;;;;;;2.47;2.27;;;29.00;1.00;;;;;;2615192;54;20462;-78
2022/07/02 12:10:39;;;;;;;2.17;2.07;;;28.80;1.00;;;;;;2611436;54;20429;-77
2022/07/02 12:16:28;;;;;;;2.67;2.50;;;28.80;1.00;;;;;;2612631;54;20422;-78
2022/07/02 12:22:29;;;;;;;4.03;2.60;;;28.30;1.00;;;;;;2611549;54;20454;-77
2022/07/02 12:47:24;;;;;;;2.63;2.10;;;28.00;1.00;;;;;;2609030;54;20393;-80
2022/07/02 12:53:16;;;;;;;2.67;2.47;;;29.30;1.00;;;;;;2610370;54;20442;-79
2022/07/02 12:59:03;;;;;;;2.30;2.20;;;29.50;1.00;;;;;;2610376;54;20406;-77
2022/07/02 13:08:13;;;;;;;3.07;2.87;;;29.50;1.00;;;;;;2608448;54;20546;-78
2022/07/02 13:14:01;;;;;;;4.13;2.30;;;29.70;1.00;;;;;;2608171;54;20561;-78
2022/07/02 13:19:48;;;;;;;2.60;2.40;;;29.50;1.00;;;;;;2614609;54;20173;-78
2022/07/02 13:25:36;;;;;;;2.50;2.10;;;29.20;1.00;;;;;;2611830;54;20258;-76
2022/07/02 13:31:24;;;;;;;2.90;2.47;;;28.80;1.00;;;;;;2610618;54;20172;-77
2022/07/02 13:37:13;;;;;;;2.40;2.20;;;28.50;1.00;;;;;;2611486;54;20445;-79
2022/07/02 13:43:01;;;;;;;3.20;2.30;;;29.70;1.00;;;;;;2612859;54;20483;-78
2022/07/02 13:48:49;;;;;;;3.30;2.10;;;29.50;1.00;;;;;;2613199;54;20237;-77
2022/07/02 13:54:37;;;;;;;3.33;2.70;;;28.90;1.00;;;;;;2614022;39;20526;-79
2022/07/02 14:00:25;;;;;;;3.00;2.60;;;28.70;1.00;;;;;;2612752;54;20168;-78
2022/07/02 14:03:28;;;;;;;2.77;2.57;;;28.50;1.00;;;;;;2611418;54;20409;-77
2022/07/02 14:16:13;;;;;;;2.50;2.40;;;28.70;1.00;;;;;;2608020;54;20465;-78
2022/07/02 14:22:00;;;;;;;2.60;2.40;;;28.70;1.00;;;;;;2612040;54;20297;-78
2022/07/02 14:27:47;;;;;;;5.50;2.60;;;28.80;1.00;;;;;;2612248;54;20141;-79
2022/07/02 14:33:34;;;;;;;2.73;2.63;;;28.90;1.00;;;;;;2612013;54;20141;-78
2022/07/02 14:39:22;;;;;;;2.20;2.10;;;27.50;1.00;;;;;;2610827;54;20120;-78
2022/07/02 14:45:09;;;;;;;2.73;2.40;;;28.30;1.00;;;;;;2611735;39;20619;-78
2022/07/02 14:50:57;;;;;;;2.67;2.47;;;28.60;1.00;;;;;;2614177;54;20153;-78
2022/07/02 14:56:45;;;;;;;2.60;2.40;;;29.10;1.00;;;;;;2610730;54;20181;-79
2022/07/02 15:02:33;;;;;;;2.47;2.37;;;28.90;1.00;;;;;;2613314;39;20246;-79
2022/07/02 15:11:43;;;;;;;2.60;2.40;;;27.70;1.00;;;;;;2612222;54;20472;-79
2022/07/02 15:17:31;;;;;;;2.90;2.60;;;28.10;1.00;;;;;;2612373;54;20191;-77
2022/07/02 15:23:23;;;;;;;2.80;2.53;;;28.70;1.00;;;;;;2613621;54;20168;-79
2022/07/02 15:29:12;;;;;;;7.47;2.90;;;27.90;1.00;;;;;;2614690;46;20407;-79
2022/07/02 15:35:02;;;;;;;2.83;2.63;;;27.50;1.00;;;;;;2612746;54;20375;-78
2022/07/02 15:40:50;;;;;;;4.40;2.43;;;27.00;1.00;;;;;;2612642;39;27741;-80
2022/07/02 15:46:39;;;;;;;2.93;2.73;;;27.10;1.00;;;;;;2612676;54;20476;-77
2022/07/02 15:52:45;;;;;;;2.80;2.60;;;26.80;1.00;;;;;;2614819;54;20990;-79
2022/07/02 16:05:07;;;;;;;2.80;2.60;;;28.10;1.00;;;;;;2611222;54;20400;-78
2022/07/02 16:14:17;;;;;;;2.83;2.63;;;28.00;1.00;;;;;;2613802;54;20429;-78
2022/07/02 16:20:05;;;;;;;3.60;3.40;;;28.50;1.00;;;;;;2611979;39;20801;-79
2022/07/02 16:25:52;;;;;;;3.50;3.20;;;28.50;1.00;;;;;;2609853;54;20401;-78
2022/07/02 16:31:47;;;;;;;2.87;2.40;;;28.70;1.00;;;;;;2613870;39;20431;-79
2022/07/02 16:37:36;;;;;;;2.70;2.50;;;28.70;1.00;;;;;;2613912;54;20405;-79
2022/07/02 16:43:32;;;;;;;2.70;2.60;;;28.60;1.00;;;;;;2613400;54;20533;-76
2022/07/02 16:55:53;;;;;;;2.80;2.70;;;27.90;1.00;;;;;;2611394;54;20400;-78
2022/07/02 17:05:03;;;;;;;3.27;2.73;;;28.20;1.00;;;;;;2612271;54;20399;-78
2022/07/02 17:14:13;;;;;;;6.83;6.33;;;28.60;1.00;;;;;;2613674;39;20884;-79
2022/07/02 17:20:00;;;;;;;6.80;5.37;;;28.50;1.00;;;;;;2614659;39;20779;-80
2022/07/02 17:25:48;;;;;;;3.47;3.07;;;28.50;1.00;;;;;;2612709;54;20125;-78
2022/07/02 17:31:38;;;;;;;3.03;2.83;;;28.10;1.00;;;;;;2610414;54;20162;-78
2022/07/02 17:37:26;;;;;;;3.90;3.10;;;28.60;1.00;;;;;;2614813;54;21075;-78
2022/07/02 17:43:14;;;;;;;4.80;2.50;;;28.60;1.00;;;;;;2611613;54;20132;-77
2022/07/02 17:49:02;;;;;;;6.20;5.73;;;27.90;1.00;;;;;;2613602;39;20786;-78
2022/07/02 17:54:50;;;;;;;3.37;3.07;;;27.40;1.00;;;;;;2612820;54;20139;-77
2022/07/02 18:00:40;;;;;;;13.50;12.30;;;26.90;1.00;;;;;;2611746;54;20394;-79
2022/07/02 18:06:28;;;;;;;5.20;4.20;;;27.20;1.00;;;;;;2613960;54;20427;-77
2022/07/02 18:12:27;;;;;;;3.27;3.07;;;26.80;1.00;;;;;;2611841;46;20404;-79
2022/07/02 18:18:14;;;;;;;3.47;3.17;;;26.80;1.00;;;;;;2612213;54;20148;-79
2022/07/02 18:24:01;;;;;;;4.90;3.17;;;26.80;1.00;;;;;;2611969;54;20146;-79
2022/07/02 18:29:48;;;;;;;3.13;2.93;;;26.70;1.00;;;;;;2612450;46;20146;-79
2022/07/02 18:35:37;;;;;;;3.30;3.00;;;26.50;1.00;;;;;;2613355;54;20134;-80
2022/07/02 18:41:24;;;;;;;5.33;2.83;;;26.40;1.00;;;;;;2611798;54;20437;-79
2022/07/02 18:47:11;;;;;;;3.47;3.17;;;26.20;1.00;;;;;;2613301;54;20899;-78
2022/07/02 18:53:00;;;;;;;3.20;2.90;;;26.10;1.00;;;;;;2616286;54;20140;-79
2022/07/02 18:58:49;;;;;;;6.40;3.43;;;26.00;1.00;;;;;;2615044;54;20406;-76
2022/07/02 19:04:37;;;;;;;3.53;3.23;;;26.00;1.00;;;;;;2613479;54;20411;-79
2022/07/02 19:20:37;;;;;;;3.83;3.60;;;25.60;1.00;;;;;;2612285;54;21202;-79
2022/07/02 19:32:31;;;;;;;4.83;4.53;;;25.50;1.00;;;;;;2613000;54;21052;-78
2022/07/02 19:38:18;;;;;;;5.60;5.10;;;25.30;1.00;;;;;;2612758;54;20388;-77
2022/07/02 19:44:05;;;;;;;4.80;4.40;;;25.10;1.00;;;;;;2612138;54;20238;-80
2022/07/02 19:49:52;;;;;;;4.93;4.43;;;25.00;1.00;;;;;;2614692;54;20289;-79
2022/07/02 19:55:39;;;;;;;5.57;4.40;;;24.80;1.00;;;;;;2614222;54;20138;-77
2022/07/02 20:01:27;;;;;;;14.23;8.03;;;24.60;1.00;;;;;;2614399;54;20133;-80
2022/07/02 20:07:15;;;;;;;7.17;4.90;;;24.60;1.00;;;;;;2614453;54;20179;-80
2022/07/02 20:09:42;;;;;;;4.63;4.23;;;24.50;1.00;;;;;;2614141;54;20439;-79
2022/07/02 20:12:09;;;;;;;4.10;3.80;;;24.50;1.00;;;;;;2614151;31;20613;-78
2022/07/02 20:17:57;;;;;;;4.43;4.00;;;24.20;1.00;;;;;;2614174;54;20395;-79
2022/07/02 20:23:45;;;;;;;4.90;4.50;;;24.10;1.00;;;;;;2612710;54;20423;-78
2022/07/02 20:29:32;;;;;;;8.20;3.70;;;23.90;1.00;;;;;;2612078;54;20491;-78
2022/07/02 20:35:20;;;;;;;3.97;3.50;;;24.00;1.00;;;;;;2613317;54;20151;-77
2022/07/02 20:41:11;;;;;;;5.30;4.90;;;23.60;1.00;;;;;;2611522;39;20832;-79
2022/07/02 20:46:58;;;;;;;4.80;4.40;;;23.60;1.00;;;;;;2610068;54;20424;-78
2022/07/02 20:52:46;;;;;;;5.30;4.80;;;23.30;1.00;;;;;;2614962;39;20535;-79
2022/07/02 20:58:35;;;;;;;5.77;4.73;;;23.00;1.00;;;;;;2614371;54;20133;-79
2022/07/02 21:04:22;;;;;;;4.63;3.90;;;22.80;1.00;;;;;;2614065;54;20403;-79
2022/07/02 21:20:21;;;;;;;6.40;4.30;;;22.20;1.00;;;;;;2611802;54;20559;-76
2022/07/02 21:26:09;;;;;;;4.90;4.50;;;22.10;1.00;;;;;;2613964;54;20395;-78
2022/07/02 21:31:56;;;;;;;3.73;3.43;;;21.90;1.00;;;;;;2610944;54;20131;-78
2022/07/02 21:37:43;;;;;;;3.60;3.30;;;21.60;1.90;;;;;;2609548;39;20549;-77
2022/07/02 21:43:30;;;;;;;4.07;3.70;;;21.50;1.00;;;;;;2610205;54;20352;-76
2022/07/02 21:49:18;;;;;;;4.77;3.70;;;21.10;4.00;;;;;;2613326;54;20159;-76
2022/07/02 21:55:06;;;;;;;3.47;3.20;;;21.10;2.20;;;;;;2614458;54;20134;-76
2022/07/02 22:00:56;;;;;;;3.73;3.40;;;20.90;2.80;;;;;;2611982;54;20395;-76
2022/07/02 22:06:43;;;;;;;4.23;3.53;;;20.60;6.20;;;;;;2613088;39;20555;-76
2022/07/02 22:12:47;;;;;;;3.60;3.20;;;20.80;4.60;;;;;;2614676;54;20314;-75
2022/07/02 22:18:35;;;;;;;5.83;3.13;;;20.60;5.00;;;;;;2613196;54;20132;-76
2022/07/02 22:24:22;;;;;;;4.90;3.60;;;20.50;6.30;;;;;;2613026;54;20388;-75
2022/07/02 22:30:10;;;;;;;3.63;3.27;;;20.60;6.40;;;;;;2615399;54;20137;-76
2022/07/02 22:35:57;;;;;;;6.57;3.80;;;20.70;7.40;;;;;;2613106;54;20403;-76
2022/07/02 22:41:44;;;;;;;6.73;4.00;;;20.30;14.50;;;;;;2614810;54;20134;-76
2022/07/02 22:47:31;;;;;;;4.30;3.43;;;20.40;15.60;;;;;;2617146;39;20554;-75
2022/07/02 22:53:19;;;;;;;3.70;3.40;;;20.10;20.20;;;;;;2616729;54;20126;-75
2022/07/02 22:59:07;;;;;;;7.13;4.30;;;20.00;18.10;;;;;;2616288;54;21713;-76
2022/07/02 23:04:55;;;;;;;5.27;3.80;;;20.00;18.10;;;;;;2616865;54;20160;-77
2022/07/02 23:20:59;;;;;;;7.37;4.23;;;19.70;18.70;;;;;;2613851;46;20431;-75
2022/07/02 23:26:46;;;;;;;7.63;3.90;;;19.40;22.10;;;;;;2612631;54;20137;-75
2022/07/02 23:32:34;;;;;;;4.23;3.83;;;19.50;23.80;;;;;;2613975;54;20395;-77
2022/07/02 23:38:21;;;;;;;4.80;3.60;;;19.50;24.80;;;;;;2614471;54;20142;-75
2022/07/02 23:44:08;;;;;;;5.03;4.00;;;19.50;23.60;;;;;;2613839;54;20254;-76
2022/07/02 23:49:55;;;;;;;3.53;3.23;;;19.60;23.10;;;;;;2612936;39;21206;-76
2022/07/02 23:55:43;;;;;;;4.27;3.87;;;19.50;25.80;;;;;;2615795;54;20148;-76
